Time;durP1;ratioP1;P1;durP2;ratioP2;P2;SDS_P1;SDS_P2;PMS_P1;PMS_P2;Temp;Humidity;BMP_temperature;BMP_pressure;BME280_temperature;BME280_humidity;BME280_pressure;Samples;Min_cycle;Max_cycle;Signal;HPM_P1;HPM_P2
2022/06/16 00:00:51;;;;;;;4.70;2.15;;;;;;;12.27;100.00;155606.31;4920293;29;20066;-81
2022/06/16 00:03:16;;;;;;;6.07;2.25;;;;;;;12.22;100.00;155593.47;4928043;28;20138;-82
2022/06/16 00:05:43;;;;;;;8.43;2.42;;;;;;;12.26;100.00;155605.03;4945775;28;20035;-82
2022/06/16 00:08:12;;;;;;;6.85;2.28;;;;;;;12.29;100.00;155611.44;4926674;28;20048;-82
2022/06/16 00:11:16;;;;;;;5.88;2.15;;;;;;;12.24;100.00;155599.91;4952791;29;20071;-80
2022/06/16 00:13:27;;;;;;;5.85;2.05;;;;;;;12.12;100.00;155569.06;4953094;28;20038;-78
2022/06/16 00:15:53;;;;;;;4.45;2.28;;;;;;;12.19;100.00;155585.78;4942756;28;20043;-82
2022/06/16 00:18:19;;;;;;;6.68;2.00;;;;;;;11.98;100.00;155534.41;4937043;28;20047;-81
2022/06/16 00:20:45;;;;;;;3.47;2.10;;;;;;;12.10;100.00;155562.66;4957548;28;20123;-79
2022/06/16 00:23:10;;;;;;;4.53;1.88;;;;;;;12.10;100.00;155563.94;4940710;28;20438;-82
2022/06/16 00:25:36;;;;;;;9.32;2.20;;;;;;;12.00;100.00;155538.28;4940106;28;20101;-78
2022/06/16 00:28:02;;;;;;;7.00;2.30;;;;;;;11.93;100.00;155520.28;4942400;29;20047;-79
2022/06/16 00:30:40;;;;;;;5.88;1.70;;;;;;;11.72;100.00;155467.59;4933173;29;20046;-80
2022/06/16 00:33:06;;;;;;;2.83;1.73;;;;;;;11.82;100.00;155493.25;4914474;29;20063;-80
2022/06/16 00:35:32;;;;;;;5.65;1.80;;;;;;;11.90;100.00;155513.84;4913896;29;20040;-81
2022/06/16 00:37:57;;;;;;;6.07;1.60;;;;;;;12.03;100.00;155545.94;4929825;28;20112;-81
2022/06/16 00:40:23;;;;;;;7.03;1.65;;;;;;;12.06;100.00;155554.94;4937589;29;20027;-80
2022/06/16 00:42:49;;;;;;;4.25;1.90;;;;;;;12.02;100.00;155543.41;4942861;29;20109;-82
2022/06/16 00:45:42;;;;;;;5.00;1.80;;;;;;;11.96;100.00;155529.28;4925909;28;20490;-78
2022/06/16 00:48:15;;;;;;;;;;;;;;;11.93;100.00;155521.56;4934979;28;20071;-82
2022/06/16 00:50:41;;;;;;;6.50;1.87;;;;;;;11.84;100.00;155499.66;4913666;28;20439;-83
2022/06/16 00:53:07;;;;;;;4.95;1.83;;;;;;;11.79;100.00;155485.53;4936438;28;20058;-82
2022/06/16 00:55:34;;;;;;;7.13;1.70;;;;;;;11.78;100.00;155484.28;4926138;29;20043;-82
2022/06/16 00:58:00;;;;;;;7.50;1.67;;;;;;;11.82;100.00;155493.25;4937025;28;20494;-75
2022/06/16 01:00:33;;;;;;;3.78;1.50;;;;;;;11.76;100.00;155477.88;4960900;28;20787;-84
2022/06/16 01:02:59;;;;;;;3.80;1.30;;;;;;;11.72;100.00;155467.59;4942598;29;20042;-82
2022/06/16 01:05:25;;;;;;;4.75;1.65;;;;;;;11.66;100.00;155453.47;4953902;29;20086;-82
2022/06/16 01:07:52;;;;;;;5.32;1.60;;;;;;;11.61;100.00;155440.63;4945488;29;20035;-82
2022/06/16 01:10:19;;;;;;;3.33;1.42;;;;;;;11.64;100.00;155448.31;4936974;29;20394;-82
2022/06/16 01:16:17;;;;;;;2.58;1.50;;;;;;;11.61;100.00;155441.91;4931328;28;20039;-81
2022/06/16 01:19:20;;;;;;;4.50;1.45;;;;;;;11.52;100.00;155417.53;4947844;29;20409;-84
2022/06/16 01:22:01;;;;;;;4.00;1.40;;;;;;;11.50;100.00;155414.94;4919960;28;20047;-83
2022/06/16 01:24:49;;;;;;;4.93;1.55;;;;;;;11.56;100.00;155427.78;4943506;29;20478;-84
2022/06/16 01:27:35;;;;;;;4.55;1.70;;;;;;;11.42;100.00;155394.41;4951923;28;20123;-81
2022/06/16 01:30:13;;;;;;;5.72;1.90;;;;;;;11.39;100.00;155385.41;4937854;29;20454;-84
2022/06/16 01:32:52;;;;;;;6.63;1.90;;;;;;;11.35;100.00;155376.44;4919465;29;20039;-82
2022/06/16 01:35:35;;;;;;;8.40;1.90;;;;;;;11.27;100.00;155355.91;4966348;28;20046;-85
2022/06/16 01:38:18;;;;;;;6.13;1.90;;;;;;;11.33;100.00;155370.03;4940185;28;20414;-82
2022/06/16 01:40:52;;;;;;;4.35;2.10;;;;;;;11.28;100.00;155359.78;4912781;29;20039;-78
2022/06/16 01:43:27;;;;;;;5.70;2.10;;;;;;;11.23;100.00;155346.91;4960402;28;20035;-83
2022/06/16 01:46:20;;;;;;;3.53;1.73;;;;;;;11.30;100.00;155363.56;4928364;28;20266;-84
2022/06/16 01:48:57;;;;;;;5.45;1.65;;;;;;;11.41;100.00;155390.56;4913350;29;20039;-81
2022/06/16 01:51:49;;;;;;;3.40;2.20;;;;;;;11.46;100.00;155404.66;4927984;29;20090;-82
2022/06/16 01:54:24;;;;;;;7.38;2.28;;;;;;;11.49;100.00;155412.38;4924669;28;20107;-83
2022/06/16 01:56:58;;;;;;;4.43;1.80;;;;;;;11.44;100.00;155399.53;4920621;29;20490;-85
2022/06/16 01:59:29;;;;;;;5.15;1.80;;;;;;;11.44;100.00;155398.25;4945734;28;20039;-79
2022/06/16 02:02:04;;;;;;;2.45;1.50;;;;;;;11.38;100.00;155382.88;4920710;29;20035;-83
2022/06/16 02:04:36;;;;;;;4.10;1.90;;;;;;;11.35;100.00;155375.16;4948269;28;20482;-81
2022/06/16 02:07:08;;;;;;;3.83;1.73;;;;;;;11.31;100.00;155366.16;4952509;28;20154;-84
2022/06/16 02:09:41;;;;;;;8.15;2.08;;;;;;;11.29;100.00;155361.03;4930366;29;20063;-80
2022/06/16 02:12:10;;;;;;;;;;;;;;;11.28;100.00;155358.44;4953092;28;20039;-80
2022/06/16 02:14:45;;;;;;;7.68;2.33;;;;;;;11.25;100.00;155350.78;4936658;29;19950;-80
2022/06/16 02:17:34;;;;;;;8.23;2.17;;;;;;;11.30;100.00;155364.91;4942974;28;20049;-81
2022/06/16 02:20:00;;;;;;;4.47;2.03;;;;;;;11.21;100.00;155340.53;4940421;28;20043;-80
2022/06/16 02:22:26;;;;;;;4.68;1.90;;;;;;;11.14;100.00;155322.53;4939652;29;20068;-81
2022/06/16 02:24:51;;;;;;;3.72;1.88;;;;;;;11.17;100.00;155330.22;4932254;28;20445;-81
2022/06/16 02:27:17;;;;;;;4.93;2.17;;;;;;;11.23;100.00;155345.66;4937807;28;20039;-83
2022/06/16 02:29:44;;;;;;;2.92;1.67;;;;;;;11.19;100.00;155336.66;4941429;29;20074;-78
2022/06/16 02:32:44;;;;;;;6.75;2.03;;;;;;;11.16;100.00;155327.66;4937314;28;20054;-82
2022/06/16 02:35:34;;;;;;;7.40;2.15;;;;;;;11.32;100.00;155367.44;4921334;28;20332;-83
2022/06/16 02:38:36;;;;;;;4.60;2.50;;;;;;;11.14;100.00;155322.53;4920950;28;20086;-80
2022/06/16 02:41:15;;;;;;;5.28;2.20;;;;;;;11.17;100.00;155331.53;4884850;28;20063;-78
2022/06/16 02:43:47;;;;;;;4.35;2.42;;;;;;;11.12;100.00;155317.41;4935258;29;20042;-84
2022/06/16 02:46:30;;;;;;;7.15;2.47;;;;;;;11.10;100.00;155313.56;4934342;28;20043;-82
2022/06/16 02:49:16;;;;;;;7.07;2.53;;;;;;;11.07;100.00;155305.84;4945739;29;20065;-81
2022/06/16 02:52:07;;;;;;;4.53;2.33;;;;;;;11.10;100.00;155314.81;4938702;29;20035;-83
2022/06/16 02:55:23;;;;;;;5.70;2.67;;;;;;;11.19;100.00;155336.66;4952655;28;20032;-82
2022/06/16 02:57:57;;;;;;;5.32;2.30;;;;;;;11.21;100.00;155340.53;4894698;29;20583;-84
2022/06/16 03:00:45;;;;;;;6.97;2.50;;;;;;;11.26;100.00;155353.31;4932985;28;20062;-81
2022/06/16 03:03:23;;;;;;;5.40;2.50;;;;;;;11.31;100.00;155366.16;4933297;28;20509;-81
2022/06/16 03:06:10;;;;;;;5.47;2.60;;;;;;;11.34;100.00;155372.56;4930411;28;20116;-82
2022/06/16 03:08:39;;;;;;;7.10;3.05;;;;;;;11.26;100.00;155353.31;4950420;28;20035;-83
2022/06/16 03:11:07;;;;;;;6.32;2.20;;;;;;;11.26;100.00;155353.31;4947416;28;20473;-82
2022/06/16 03:13:33;;;;;;;6.25;2.03;;;;;;;11.21;100.00;155341.78;4935018;29;20098;-82
2022/06/16 03:16:01;;;;;;;5.32;2.38;;;;;;;11.14;100.00;155323.81;4936729;29;20074;-82
2022/06/16 03:18:30;;;;;;;4.20;2.38;;;;;;;11.07;100.00;155307.09;4935255;29;20050;-84
2022/06/16 03:20:56;;;;;;;6.82;2.75;;;;;;;11.15;100.00;155325.09;4922815;28;20793;-84
2022/06/16 03:23:21;;;;;;;6.35;2.67;;;;;;;11.19;100.00;155335.34;4930642;28;20035;-83
2022/06/16 03:25:48;;;;;;;4.20;2.50;;;;;;;11.25;100.00;155350.78;4928654;28;20047;-82
2022/06/16 03:28:14;;;;;;;9.45;2.97;;;;;;;11.29;100.00;155362.31;4928293;28;20127;-82
2022/06/16 03:30:42;;;;;;;5.97;2.60;;;;;;;11.43;100.00;155395.69;4950631;28;20074;-81
2022/06/16 03:33:09;;;;;;;6.18;2.90;;;;;;;11.55;100.00;155425.25;4934213;29;20636;-82
2022/06/16 03:35:37;;;;;;;8.13;2.78;;;;;;;11.68;100.00;155458.63;4951760;28;20059;-80
2022/06/16 03:38:04;;;;;;;3.33;2.42;;;;;;;11.80;100.00;155488.13;4944860;28;20043;-81
2022/06/16 03:40:30;;;;;;;6.18;2.75;;;;;;;11.86;100.00;155503.53;4920153;29;20039;-82
2022/06/16 03:42:56;;;;;;;7.53;2.63;;;;;;;11.89;100.00;155511.25;4926906;29;20123;-80
2022/06/16 03:45:25;;;;;;;6.57;2.40;;;;;;;11.87;100.00;155506.13;4938647;29;20050;-84
2022/06/16 03:47:52;;;;;;;8.10;2.58;;;;;;;11.84;100.00;155498.38;4942298;29;20574;-81
2022/06/16 03:50:19;;;;;;;5.13;2.63;;;;;;;11.88;100.00;155508.66;4942032;28;20067;-82
2022/06/16 03:52:47;;;;;;;5.88;2.47;;;;;;;11.96;100.00;155527.97;4941377;28;20166;-79
2022/06/16 03:55:13;;;;;;;4.90;2.47;;;;;;;11.96;100.00;155527.97;4938005;28;20757;-83
2022/06/16 03:57:39;;;;;;;4.45;2.25;;;;;;;12.05;100.00;155552.41;4921239;29;20035;-81
2022/06/16 04:00:07;;;;;;;7.45;2.45;;;;;;;12.10;100.00;155562.66;4934771;28;20893;-83
2022/06/16 04:02:45;;;;;;;4.43;2.40;;;;;;;12.22;100.00;155594.78;4962822;28;20039;-81
2022/06/16 04:05:13;;;;;;;8.05;2.35;;;;;;;12.20;100.00;155589.59;4933603;28;20094;-82
2022/06/16 04:07:45;;;;;;;3.80;2.33;;;;;;;12.14;100.00;155572.94;4922205;29;20050;-78
2022/06/16 04:10:16;;;;;;;6.63;2.75;;;;;;;12.26;100.00;155605.03;4902887;28;20036;-82
2022/06/16 04:12:43;;;;;;;9.55;2.38;;;;;;;12.24;100.00;155598.59;4931704;29;20186;-79
2022/06/16 04:15:12;;;;;;;10.88;2.80;;;;;;;12.26;100.00;155603.72;4938396;28;20556;-84
2022/06/16 04:17:39;;;;;;;6.97;2.83;;;;;;;12.29;100.00;155611.44;4916440;29;20118;-79
2022/06/16 04:20:22;;;;;;;7.55;2.58;;;;;;;12.31;100.00;155616.56;4944865;28;20908;-81
2022/06/16 04:23:06;;;;;;;7.43;3.05;;;;;;;12.37;100.00;155631.97;4942125;28;20034;-82
2022/06/16 04:25:33;;;;;;;7.22;2.40;;;;;;;12.36;100.00;155628.16;4936980;28;20036;-81
2022/06/16 04:28:19;;;;;;;4.97;2.53;;;;;;;12.40;100.00;155638.44;4919822;28;20154;-81
2022/06/16 04:30:50;;;;;;;7.03;2.60;;;;;;;12.34;100.00;155624.31;4930632;29;20526;-79
2022/06/16 04:33:20;;;;;;;5.07;2.55;;;;;;;12.45;100.00;155652.56;4924369;28;20039;-82
2022/06/16 04:35:47;;;;;;;3.88;2.47;;;;;;;12.41;100.00;155642.28;4934824;29;20039;-82
2022/06/16 04:38:15;;;;;;;5.85;2.60;;;;;;;12.45;100.00;155651.25;4953610;28;20035;-81
2022/06/16 04:40:42;;;;;;;5.43;2.83;;;;;;;12.53;100.00;155671.81;4918046;29;20102;-81
2022/06/16 04:43:15;;;;;;;6.30;2.30;;;;;;;12.55;100.00;155676.97;4921515;28;20043;-81
2022/06/16 04:45:42;;;;;;;4.22;2.28;;;;;;;12.61;100.00;155691.09;4928350;29;20426;-79
2022/06/16 04:48:10;;;;;;;7.53;3.03;;;;;;;12.68;100.00;155709.09;4949608;28;20061;-81
2022/06/16 04:50:39;;;;;;;6.05;2.60;;;;;;;12.69;100.00;155711.63;4933397;29;20027;-83
2022/06/16 04:53:05;;;;;;;6.18;2.70;;;;;;;12.67;100.00;155706.50;4934143;28;20103;-77
2022/06/16 04:55:38;;;;;;;4.60;2.50;;;;;;;12.68;100.00;155707.75;4971251;28;20070;-74
2022/06/16 04:58:21;;;;;;;;;;;;;;;12.72;100.00;155718.09;4948684;28;20134;-81
2022/06/16 05:00:56;;;;;;;5.10;2.60;;;;;;;12.71;100.00;155716.75;4935405;29;19922;-82
2022/06/16 05:03:51;;;;;;;7.72;2.80;;;;;;;12.79;100.00;155736.03;4947145;28;20186;-80
2022/06/16 05:06:40;;;;;;;2.90;2.30;;;;;;;12.84;100.00;155748.88;4922278;29;20502;-81
2022/06/16 05:09:10;;;;;;;7.90;2.60;;;;;;;12.87;100.00;155756.59;4905520;28;20514;-80
2022/06/16 05:11:55;;;;;;;6.10;2.78;;;;;;;12.93;100.00;155772.00;4960317;28;20051;-80
2022/06/16 05:14:40;;;;;;;8.88;2.70;;;;;;;13.02;100.00;155793.88;4941083;28;20091;-84
2022/06/16 05:17:38;;;;;;;6.53;2.65;;;;;;;13.16;100.00;155829.81;4911605;28;20103;-83
2022/06/16 05:20:15;;;;;;;6.60;2.33;;;;;;;13.32;100.00;155869.75;4936289;28;20070;-81
2022/06/16 05:22:54;;;;;;;9.70;2.85;;;;;;;13.42;100.00;155894.16;4921828;29;20465;-82
2022/06/16 05:25:41;;;;;;;10.38;2.55;;;;;;;13.41;100.00;155892.88;4949503;28;20402;-83
2022/06/16 05:28:22;;;;;;;5.63;2.40;;;;;;;13.49;100.00;155912.16;4962980;28;20085;-80
2022/06/16 05:31:06;;;;;;;5.78;2.38;;;;;;;13.50;100.00;155914.69;4935978;29;20592;-81
2022/06/16 05:33:43;;;;;;;7.47;2.88;;;;;;;13.53;100.00;155921.16;4947288;28;20039;-86
2022/06/16 05:36:27;;;;;;;5.25;2.55;;;;;;;13.61;100.00;155941.69;4936031;29;20042;-85
2022/06/16 05:39:22;;;;;;;4.97;2.13;;;;;;;13.62;100.00;155944.28;4940455;28;20078;-84
2022/06/16 05:42:08;;;;;;;7.07;2.80;;;;;;;13.83;100.00;155998.25;4960065;28;20565;-81
2022/06/16 05:45:03;;;;;;;7.72;3.33;;;;;;;13.75;100.00;155977.72;4929316;28;20056;-80
2022/06/16 05:47:47;;;;;;;8.85;3.10;;;;;;;13.85;100.00;156000.84;4955398;28;20053;-82
2022/06/16 05:50:16;;;;;;;10.90;3.33;;;;;;;13.89;100.00;156011.13;4942063;29;20393;-84
2022/06/16 05:52:43;;;;;;;10.32;3.22;;;;;;;13.90;100.00;156015.00;4942816;29;20034;-78
2022/06/16 05:55:20;;;;;;;7.43;3.00;;;;;;;13.87;100.00;156007.25;4920160;29;20055;-81
2022/06/16 05:57:45;;;;;;;5.47;2.70;;;;;;;13.92;100.00;156018.81;4908348;29;20492;-81
2022/06/16 06:00:13;;;;;;;11.25;3.15;;;;;;;13.84;100.00;155999.53;4944250;29;20047;-81
2022/06/16 06:02:55;;;;;;;9.13;3.03;;;;;;;13.73;100.00;155971.25;4955679;28;20469;-82
2022/06/16 06:05:22;;;;;;;8.70;2.85;;;;;;;13.83;100.00;155997.00;4936518;29;20035;-82
2022/06/16 06:18:49;;;;;;;9.55;2.63;;;;;;;14.18;100.00;156085.72;4931489;28;20074;-82
2022/06/16 06:21:15;;;;;;;9.20;3.13;;;;;;;14.21;100.00;156092.13;4920769;28;20066;-79
2022/06/16 06:23:41;;;;;;;5.72;2.65;;;;;;;14.23;100.00;156097.25;4948965;28;20046;-80
2022/06/16 06:26:11;;;;;;;5.28;3.25;;;;;;;14.38;100.00;156135.84;4933559;28;20046;-82
2022/06/16 06:28:36;;;;;;;5.50;2.75;;;;;;;14.53;100.00;156173.13;4933391;29;20193;-84
2022/06/16 06:31:02;;;;;;;8.68;3.28;;;;;;;14.56;100.00;156180.88;4938962;28;20533;-80
2022/06/16 06:33:27;;;;;;;7.75;2.92;;;;;;;14.81;100.00;156241.38;4925235;29;20066;-80
2022/06/16 06:35:54;;;;;;;7.10;3.65;;;;;;;14.66;100.00;156205.34;4927927;28;20126;-81
2022/06/16 06:38:20;;;;;;;6.95;3.30;;;;;;;14.39;100.00;156138.41;4967715;28;20031;-83
2022/06/16 06:40:45;;;;;;;7.60;2.97;;;;;;;14.46;100.00;156155.13;4917645;28;20445;-81
2022/06/16 06:43:11;;;;;;;7.63;2.80;;;;;;;14.52;100.00;156169.25;4957884;28;20035;-81
2022/06/16 06:45:38;;;;;;;8.32;3.13;;;;;;;14.53;100.00;156171.84;4953363;28;20089;-83
2022/06/16 06:48:04;;;;;;;7.72;3.17;;;;;;;14.51;100.00;156168.00;4945912;28;20030;-83
2022/06/16 06:50:37;;;;;;;8.20;2.70;;;;;;;14.72;100.00;156220.75;4906900;29;20023;-81
2022/06/16 06:53:02;;;;;;;10.23;2.63;;;;;;;15.01;100.00;156292.78;4935480;29;20389;-81
2022/06/16 06:55:28;;;;;;;10.20;3.03;;;;;;;15.19;100.00;156339.09;4925441;29;20031;-82
2022/06/16 06:57:55;;;;;;;7.03;2.97;;;;;;;15.51;100.00;156418.88;4958032;28;20054;-82
2022/06/16 07:00:23;;;;;;;7.80;2.83;;;;;;;15.63;100.00;156448.47;4945988;28;20039;-83
2022/06/16 07:02:48;;;;;;;5.93;2.35;;;;;;;15.90;100.00;156515.50;4957531;28;20066;-81
2022/06/16 07:05:14;;;;;;;8.85;2.75;;;;;;;16.22;100.00;156595.25;4946372;28;20041;-82
2022/06/16 07:07:40;;;;;;;5.70;2.67;;;;;;;16.18;99.29;156586.28;4941597;29;20134;-83
2022/06/16 07:10:07;;;;;;;6.70;2.53;;;;;;;16.34;100.00;156626.16;4954729;28;20031;-81
2022/06/16 07:12:34;;;;;;;7.43;2.67;;;;;;;16.65;100.00;156704.72;4937450;29;20038;-81
2022/06/16 07:15:00;;;;;;;8.48;2.50;;;;;;;16.88;98.17;156762.72;4944715;29;20043;-82
2022/06/16 07:17:26;;;;;;;8.88;2.08;;;;;;;17.10;98.41;156818.13;4937897;29;20031;-81
2022/06/16 07:19:52;;;;;;;3.33;1.75;;;;;;;17.56;96.86;156932.75;4940286;28;20387;-83
2022/06/16 07:22:19;;;;;;;7.22;1.75;;;;;;;17.78;91.44;156988.16;4928253;29;20139;-82
2022/06/16 07:24:44;;;;;;;4.82;1.80;;;;;;;17.83;92.32;157001.00;4931468;28;20031;-81
2022/06/16 07:27:10;;;;;;;3.90;1.50;;;;;;;17.75;88.17;156980.41;4940546;28;20098;-85
2022/06/16 07:29:35;;;;;;;2.92;1.50;;;;;;;17.61;85.37;156944.31;4939332;29;20039;-85
2022/06/16 07:32:02;;;;;;;4.80;1.73;;;;;;;17.63;86.12;156949.47;4938077;28;20031;-78
2022/06/16 07:34:28;;;;;;;3.72;1.85;;;;;;;17.59;86.87;156939.16;4918607;29;20111;-82
2022/06/16 07:36:54;;;;;;;5.00;2.20;;;;;;;17.71;87.58;156971.38;4928465;29;20123;-83
2022/06/16 07:39:19;;;;;;;7.40;1.58;;;;;;;17.64;88.13;156953.34;4930426;28;20199;-81
2022/06/16 07:41:45;;;;;;;4.88;1.50;;;;;;;17.76;86.63;156982.97;4926366;29;20114;-82
2022/06/16 07:44:13;;;;;;;8.80;1.40;;;;;;;17.98;83.84;157037.16;4959087;28;20117;-83
2022/06/16 07:46:42;;;;;;;3.42;1.30;;;;;;;18.21;80.71;157095.13;4938368;29;20419;-85
2022/06/16 07:49:11;;;;;;;5.05;1.25;;;;;;;18.07;82.83;157061.63;4925443;28;20061;-83
2022/06/16 07:51:36;;;;;;;4.40;0.98;;;;;;;17.51;79.86;156919.84;4938869;29;20043;-82
2022/06/16 07:54:02;;;;;;;4.45;1.25;;;;;;;17.25;85.21;156855.47;4907023;28;20127;-78
2022/06/16 07:56:27;;;;;;;6.95;1.13;;;;;;;17.21;82.92;156843.84;4960066;28;20035;-80
2022/06/16 07:58:53;;;;;;;2.00;0.90;;;;;;;17.37;82.08;156885.09;4944889;29;20133;-80
2022/06/16 08:01:19;;;;;;;3.58;1.10;;;;;;;17.80;80.74;156992.00;4923970;28;20111;-82
2022/06/16 08:03:44;;;;;;;7.70;1.40;;;;;;;18.41;77.19;157146.69;4925019;28;20497;-80
2022/06/16 08:06:13;;;;;;;4.68;1.15;;;;;;;18.80;75.24;157243.41;4928765;28;20376;-79
2022/06/16 08:08:40;;;;;;;3.90;1.13;;;;;;;18.60;73.68;157193.13;4933804;28;20126;-81
2022/06/16 08:12:03;;;;;;;3.63;1.30;;;;;;;18.49;77.98;157166.03;4967336;28;20043;-82
2022/06/16 08:13:52;;;;;;;9.50;1.17;;;;;;;18.25;76.09;157106.78;4965036;28;20031;-80
2022/06/16 08:16:18;;;;;;;5.32;1.02;;;;;;;18.60;74.53;157194.38;4962418;28;20028;-82
2022/06/16 08:18:44;;;;;;;3.63;1.20;;;;;;;19.15;73.93;157331.13;4963217;28;20042;-83
2022/06/16 08:21:10;;;;;;;7.05;1.42;;;;;;;19.59;71.51;157443.31;4947609;28;20054;-81
2022/06/16 08:23:36;;;;;;;4.25;1.20;;;;;;;19.19;70.40;157341.41;4934931;28;20048;-82
2022/06/16 08:26:03;;;;;;;4.35;1.23;;;;;;;18.82;70.87;157249.88;4906688;28;20043;-77
2022/06/16 08:28:29;;;;;;;2.58;1.08;;;;;;;18.85;72.58;157257.63;4924730;29;20059;-83
2022/06/16 08:30:54;;;;;;;3.58;1.10;;;;;;;19.27;72.13;157362.09;4922276;29;20454;-81
2022/06/16 08:33:20;;;;;;;5.45;1.02;;;;;;;19.45;68.34;157408.47;4937542;28;20272;-82
2022/06/16 08:35:46;;;;;;;5.07;1.35;;;;;;;19.78;70.41;157491.09;4949728;28;20061;-80
2022/06/16 08:38:13;;;;;;;3.85;1.15;;;;;;;19.94;67.18;157531.06;4937526;28;20027;-80
2022/06/16 08:40:45;;;;;;;6.68;1.33;;;;;;;20.06;68.35;157559.44;4925011;29;20035;-82
2022/06/16 08:43:29;;;;;;;3.67;0.90;;;;;;;20.27;68.93;157612.34;4909198;28;20050;-83
2022/06/16 08:45:59;;;;;;;8.63;1.38;;;;;;;19.99;64.69;157542.69;4922343;28;20402;-85
2022/06/16 08:48:35;;;;;;;4.00;1.02;;;;;;;19.88;68.07;157515.59;4921355;28;20082;-81
2022/06/16 08:51:22;;;;;;;4.45;0.85;;;;;;;19.89;64.12;157516.88;4949924;28;20583;-80
2022/06/16 08:53:53;;;;;;;3.75;1.42;;;;;;;19.93;65.94;157528.50;4930521;29;20094;-79
2022/06/16 08:56:57;;;;;;;3.63;1.10;;;;;;;20.26;65.43;157609.78;4927593;28;20032;-82
2022/06/16 08:59:37;;;;;;;5.85;0.82;;;;;;;20.27;64.14;157612.34;4935519;28;20040;-83
2022/06/16 09:02:10;;;;;;;5.07;1.00;;;;;;;20.15;63.17;157583.94;4934021;28;20054;-82
2022/06/16 09:05:06;;;;;;;2.25;0.60;;;;;;;20.24;60.67;157605.91;4914859;29;20036;-86
2022/06/16 09:07:56;;;;;;;2.47;0.70;;;;;;;20.23;61.56;157603.34;4906511;29;20047;-83
2022/06/16 09:10:37;;;;;;;4.00;0.70;;;;;;;19.81;59.84;157498.81;4929625;28;20121;-74
2022/06/16 09:13:40;;;;;;;4.75;0.80;;;;;;;19.85;62.33;157507.84;4942731;28;20063;-75
2022/06/16 09:16:19;;;;;;;;;;;;;;;20.17;58.72;157589.16;4963594;28;20046;-77
2022/06/16 09:19:06;;;;;;;1.30;0.60;;;;;;;20.39;58.51;157644.59;4959177;28;19911;-79
2022/06/16 09:21:49;;;;;;;2.25;0.70;;;;;;;20.12;56.25;157574.97;4961054;28;20035;-80
2022/06/16 09:24:40;;;;;;;1.02;0.60;;;;;;;20.38;57.84;157640.72;4950850;28;20051;-84
2022/06/16 09:27:15;;;;;;;1.20;0.50;;;;;;;20.29;56.11;157618.81;4935312;28;20044;-82
2022/06/16 09:29:58;;;;;;;1.27;0.40;;;;;;;20.46;54.34;157660.13;4944281;28;20101;-79
2022/06/16 09:32:43;;;;;;;2.47;0.50;;;;;;;20.48;55.83;157665.28;4930868;28;20038;-83
2022/06/16 09:35:21;;;;;;;2.08;0.50;;;;;;;20.06;54.10;157560.78;4952534;28;20035;-82
2022/06/16 09:38:02;;;;;;;3.53;0.60;;;;;;;20.23;56.81;157603.34;4932262;29;20130;-83
2022/06/16 09:40:35;;;;;;;2.05;0.40;;;;;;;20.42;53.70;157652.34;4911485;29;20028;-82
2022/06/16 09:43:22;;;;;;;1.20;0.60;;;;;;;20.60;51.87;157696.28;4925377;28;20582;-80
2022/06/16 09:46:00;;;;;;;2.42;0.70;;;;;;;20.05;51.80;157558.16;4930501;29;20044;-78
2022/06/16 09:48:32;;;;;;;3.20;0.60;;;;;;;20.49;54.00;157667.84;4915743;29;20027;-80
2022/06/16 09:51:07;;;;;;;1.00;0.40;;;;;;;21.07;50.95;157813.72;4920176;28;20042;-81
2022/06/16 09:54:18;;;;;;;3.67;0.75;;;;;;;21.21;50.69;157849.88;4942621;28;20031;-81
2022/06/16 09:56:55;;;;;;;4.13;0.80;;;;;;;21.29;49.84;157870.53;4868842;29;20100;-88
2022/06/16 09:59:28;;;;;;;2.78;0.57;;;;;;;21.46;51.83;157913.19;4920607;28;20105;-79
2022/06/16 10:02:03;;;;;;;3.30;0.80;;;;;;;20.96;52.03;157786.59;4951070;28;20153;-86
2022/06/16 10:04:29;;;;;;;6.10;0.60;;;;;;;21.06;51.43;157811.13;4930464;29;20035;-84
2022/06/16 10:07:18;;;;;;;3.25;0.77;;;;;;;21.18;53.12;157842.13;4924953;28;20513;-83
2022/06/16 10:10:23;;;;;;;2.45;0.68;;;;;;;21.68;53.18;157967.38;4926461;29;20466;-87
2022/06/16 10:13:07;;;;;;;4.75;0.70;;;;;;;21.89;53.60;158020.38;4839938;29;20048;-76
2022/06/16 10:16:08;;;;;;;4.70;0.75;;;;;;;21.71;50.31;157976.44;4919362;29;20040;-84
2022/06/16 10:18:34;;;;;;;3.20;0.80;;;;;;;21.86;51.96;158013.88;4941879;28;20027;-83
2022/06/16 10:21:02;;;;;;;2.13;0.63;;;;;;;21.81;51.00;157999.69;4952564;28;20545;-83
2022/06/16 10:23:31;;;;;;;3.28;0.77;;;;;;;21.98;48.73;158043.56;4927699;28;20662;-83
2022/06/16 10:26:01;;;;;;;3.38;0.88;;;;;;;21.69;48.40;157970.00;4912980;29;20042;-85
2022/06/16 10:28:29;;;;;;;4.53;0.93;;;;;;;21.63;49.59;157955.78;4944243;28;20043;-82
2022/06/16 10:30:57;;;;;;;4.43;0.70;;;;;;;21.97;50.57;158041.00;4937841;28;20039;-82
2022/06/16 10:33:29;;;;;;;2.72;0.68;;;;;;;22.37;51.45;158140.50;4957145;28;20074;-85
2022/06/16 10:36:14;;;;;;;1.52;0.52;;;;;;;22.45;51.63;158161.16;4935773;28;20534;-80
2022/06/16 10:38:45;;;;;;;3.08;0.80;;;;;;;22.39;47.18;158145.69;4932849;28;20054;-80
2022/06/16 10:41:29;;;;;;;4.10;0.70;;;;;;;22.40;48.96;158148.28;4961377;28;20443;-80
2022/06/16 10:44:00;;;;;;;3.65;0.90;;;;;;;22.69;49.81;158221.88;4933524;29;20498;-82
2022/06/16 10:46:43;;;;;;;5.00;0.60;;;;;;;22.96;48.72;158289.06;4950284;28;20027;-83
2022/06/16 10:49:16;;;;;;;4.72;1.20;;;;;;;22.61;47.08;158202.50;4947778;28;20046;-81
2022/06/16 10:52:23;;;;;;;5.03;0.80;;;;;;;22.71;49.08;158227.06;4957984;28;20035;-83
2022/06/16 10:55:05;;;;;;;4.13;0.82;;;;;;;22.86;46.22;158264.53;4900666;28;20058;-83
2022/06/16 10:57:40;;;;;;;5.97;0.80;;;;;;;22.96;46.49;158290.34;4929482;29;20464;-83
2022/06/16 11:00:10;;;;;;;2.10;0.60;;;;;;;22.88;46.97;158269.69;4934753;28;20640;-82
2022/06/16 11:02:36;;;;;;;2.40;0.80;;;;;;;22.69;47.01;158221.88;4949049;28;20082;-81
2022/06/16 11:05:12;;;;;;;2.55;0.80;;;;;;;22.97;47.31;158291.66;4942425;28;20073;-81
2022/06/16 11:07:42;;;;;;;3.47;0.70;;;;;;;22.90;49.79;158274.84;4935598;29;20031;-83
2022/06/16 11:10:12;;;;;;;4.13;1.08;;;;;;;23.41;52.36;158404.09;4933928;28;20058;-85
2022/06/16 11:12:44;;;;;;;1.17;0.60;;;;;;;23.71;47.68;158480.41;4933041;28;20086;-84
2022/06/16 11:15:45;;;;;;;;;;;;;;;23.50;47.09;158427.38;4921311;28;20040;-84
2022/06/16 11:18:15;;;;;;;3.20;0.85;;;;;;;23.60;48.69;158451.97;4911874;29;19946;-85
2022/06/16 11:20:48;;;;;;;4.65;0.80;;;;;;;23.49;48.69;158424.81;4912458;28;20047;-85
2022/06/16 11:23:33;;;;;;;4.97;0.95;;;;;;;23.25;45.74;158364.06;4938034;28;20047;-84
2022/06/16 11:26:21;;;;;;;3.53;0.68;;;;;;;23.00;47.81;158300.72;4935201;28;20532;-81
2022/06/16 11:28:58;;;;;;;4.75;1.13;;;;;;;23.37;45.66;158393.78;4908992;29;20065;-82
2022/06/16 11:31:35;;;;;;;1.90;0.70;;;;;;;23.75;45.70;158488.13;4914896;28;20023;-84
2022/06/16 11:34:09;;;;;;;2.83;0.73;;;;;;;22.89;46.33;158273.56;4919986;28;20454;-80
2022/06/16 11:36:44;;;;;;;3.78;0.80;;;;;;;22.45;49.79;158161.16;4932755;29;20513;-82
2022/06/16 11:39:49;;;;;;;3.45;0.77;;;;;;;22.77;49.69;158242.53;4927637;29;20043;-82
2022/06/16 11:42:36;;;;;;;4.15;0.90;;;;;;;22.94;48.02;158286.50;4936279;28;20074;-83
2022/06/16 11:45:20;;;;;;;3.97;0.82;;;;;;;22.99;48.44;158296.81;4936682;29;20054;-84
2022/06/16 11:48:11;;;;;;;3.25;1.00;;;;;;;23.51;51.25;158428.69;4932435;29;20058;-82
2022/06/16 11:50:49;;;;;;;1.88;0.70;;;;;;;22.54;48.13;158184.41;4930806;29;20109;-80
2022/06/16 11:53:49;;;;;;;1.42;0.77;;;;;;;22.48;48.34;158170.22;4951447;28;20050;-85
2022/06/16 11:56:20;;;;;;;3.97;0.93;;;;;;;23.08;49.48;158320.13;4926349;28;20062;-84
2022/06/16 11:59:19;;;;;;;2.55;0.75;;;;;;;23.47;45.01;158419.66;4933360;29;20143;-84
2022/06/16 12:01:47;;;;;;;1.80;0.90;;;;;;;24.00;44.80;158551.56;4945511;28;20067;-82
2022/06/16 12:04:35;;;;;;;3.08;0.73;;;;;;;23.31;46.51;158379.56;4931803;28;20047;-85
2022/06/16 12:07:04;;;;;;;3.35;0.70;;;;;;;23.22;45.43;158355.00;4929864;28;20047;-84
2022/06/16 12:09:36;;;;;;;3.08;0.77;;;;;;;22.19;46.81;158095.22;4910546;29;20050;-80